Time;durP1;ratioP1;P1;durP2;ratioP2;P2;SDS_P1;SDS_P2;PMS_P1;PMS_P2;Temp;Humidity;BMP_temperature;BMP_pressure;BME280_temperature;BME280_humidity;BME280_pressure;Samples;Min_cycle;Max_cycle;Signal;HPM_P1;HPM_P2
2023/04/26 00:01:15;;;;;;;0.90;0.90;;;;;;;7.36;100.00;96124.96;110213;1242;69259;-76
2023/04/26 00:03:45;;;;;;;1.50;0.90;;;;;;;7.29;100.00;96124.16;111088;1241;69269;-77
2023/04/26 00:06:18;;;;;;;2.10;1.10;;;;;;;7.28;100.00;96123.33;111923;1241;57705;-77
2023/04/26 00:08:52;;;;;;;1.10;1.00;;;;;;;7.23;100.00;96127.81;110344;1242;58874;-77
2023/04/26 00:11:23;;;;;;;3.30;1.00;;;;;;;7.23;100.00;96128.64;110290;1241;68630;-76
2023/04/26 00:13:54;;;;;;;1.30;1.00;;;;;;;7.18;100.00;96128.67;110201;1240;67514;-77
2023/04/26 00:16:24;;;;;;;0.90;0.80;;;;;;;7.14;100.00;96130.58;110196;1243;68788;-77
2023/04/26 00:18:57;;;;;;;0.90;0.80;;;;;;;7.17;100.00;96134.14;110167;1243;58896;-76
2023/04/26 00:21:30;;;;;;;1.00;0.90;;;;;;;7.18;100.00;96135.79;110251;1241;58940;-76
2023/04/26 00:24:04;;;;;;;1.00;0.90;;;;;;;7.18;100.00;96138.38;110201;1244;69807;-76
2023/04/26 00:26:36;;;;;;;1.30;1.10;;;;;;;7.12;100.00;96138.33;110253;1244;69257;-76
2023/04/26 00:29:07;;;;;;;1.20;0.90;;;;;;;7.14;100.00;96140.09;110198;1242;68373;-76
2023/04/26 00:31:38;;;;;;;1.20;1.00;;;;;;;7.16;100.00;96138.52;110214;1242;58866;-76
2023/04/26 00:34:12;;;;;;;0.90;0.80;;;;;;;7.17;100.00;96139.17;110126;1242;58904;-77
2023/04/26 00:36:48;;;;;;;1.10;1.00;;;;;;;7.18;100.00;96139.78;110169;1242;68707;-76
2023/04/26 00:39:21;;;;;;;1.20;1.10;;;;;;;7.17;100.00;96138.48;110202;1241;68443;-76
2023/04/26 00:41:52;;;;;;;0.80;0.70;;;;;;;7.16;100.00;96139.59;110190;1248;69283;-76
2023/04/26 00:44:22;;;;;;;1.10;0.90;;;;;;;7.15;100.00;96139.45;110124;1245;59753;-77
2023/04/26 00:46:54;;;;;;;1.40;1.00;;;;;;;7.14;100.00;96136.73;110190;1242;59655;-76
2023/04/26 00:49:25;;;;;;;1.20;1.10;;;;;;;7.10;100.00;96137.21;110211;1242;71433;-76
2023/04/26 00:51:56;;;;;;;1.70;1.10;;;;;;;7.10;100.00;96140.23;110139;1245;68634;-76
2023/04/26 00:54:28;;;;;;;1.30;1.20;;;;;;;6.96;100.00;96143.78;110170;1243;69297;-77
2023/04/26 00:57:01;;;;;;;2.00;1.10;;;;;;;6.99;100.00;96146.31;110114;1241;59809;-77
2023/04/26 00:59:34;;;;;;;1.60;1.30;;;;;;;7.00;100.00;96141.34;110215;1249;59654;-77
2023/04/26 01:02:09;;;;;;;1.40;1.20;;;;;;;7.00;100.00;96141.73;110185;1244;71409;-77
2023/04/26 01:04:40;;;;;;;1.70;1.00;;;;;;;7.01;100.00;96142.52;110196;1250;69640;-77
2023/04/26 01:07:14;;;;;;;2.30;1.40;;;;;;;6.97;100.00;96141.04;110104;1245;69161;-76
2023/04/26 01:09:44;;;;;;;1.80;1.40;;;;;;;6.88;100.00;96142.25;110210;1242;59712;-76
2023/04/26 01:12:16;;;;;;;1.70;1.40;;;;;;;6.87;100.00;96143.64;110200;1249;59686;-76
2023/04/26 01:14:46;;;;;;;2.00;1.70;;;;;;;6.83;100.00;96145.63;110183;1250;71969;-77
2023/04/26 01:17:17;;;;;;;2.50;2.10;;;;;;;6.82;100.00;96147.81;110209;1243;68427;-76
2023/04/26 01:19:50;;;;;;;2.90;2.20;;;;;;;6.75;100.00;96145.41;110171;1243;69200;-77
2023/04/26 01:22:21;;;;;;;3.80;2.10;;;;;;;6.66;100.00;96152.66;110197;1242;59727;-77
2023/04/26 01:24:56;;;;;;;3.80;2.40;;;;;;;6.67;100.00;96149.88;110207;1241;59711;-77
2023/04/26 01:27:28;;;;;;;3.20;2.20;;;;;;;6.61;100.00;96154.26;110241;1242;70429;-77
2023/04/26 01:30:00;;;;;;;3.00;2.10;;;;;;;6.54;100.00;96156.17;110165;1243;69383;-77
2023/04/26 01:32:32;;;;;;;3.10;2.30;;;;;;;6.47;100.00;96157.93;110184;1243;69274;-77
2023/04/26 01:35:02;;;;;;;;;;;;;;;6.37;100.00;96160.48;110195;1248;59712;-77
2023/04/26 01:37:33;;;;;;;3.10;2.60;;;;;;;6.38;100.00;96159.67;110199;1243;59638;-77
2023/04/26 01:40:05;;;;;;;3.60;2.60;;;;;;;6.39;100.00;96159.75;110148;1242;71375;-77
2023/04/26 01:42:37;;;;;;;4.40;2.40;;;;;;;6.38;100.00;96158.62;110167;1249;69313;-77
2023/04/26 01:45:08;;;;;;;;;;;;;;;6.36;100.00;96157.35;110196;1241;69281;-77
2023/04/26 01:47:58;;;;;;;3.50;2.10;;;;;;;6.35;100.00;96161.77;110185;1242;59683;-77
2023/04/26 01:50:33;;;;;;;3.60;2.70;;;;;;;6.32;100.00;96163.24;110175;1249;59696;-77
2023/04/26 01:53:04;;;;;;;3.80;2.70;;;;;;;6.29;100.00;96163.95;110126;1245;71412;-76
2023/04/26 01:55:35;;;;;;;3.90;3.00;;;;;;;6.29;100.00;96167.56;110194;1240;68697;-77
2023/04/26 01:58:07;;;;;;;3.70;3.20;;;;;;;6.20;100.00;96168.33;110158;1242;69095;-77
2023/04/26 02:00:37;;;;;;;4.40;2.70;;;;;;;6.22;100.00;96167.92;110194;1242;59735;-77
2023/04/26 02:03:09;;;;;;;4.50;2.90;;;;;;;6.19;100.00;96167.66;110226;1240;59699;-76
2023/04/26 02:05:39;;;;;;;3.90;3.00;;;;;;;6.17;100.00;96168.03;110179;1240;71432;-76
2023/04/26 02:08:10;;;;;;;3.60;2.90;;;;;;;6.18;100.00;96168.29;110181;1243;68688;-76
2023/04/26 02:10:41;;;;;;;4.00;2.80;;;;;;;6.13;100.00;96171.06;110098;1241;69298;-76
2023/04/26 02:13:15;;;;;;;4.10;3.30;;;;;;;6.08;100.00;96166.37;110095;1241;59686;-76
2023/04/26 02:15:48;;;;;;;3.50;2.80;;;;;;;6.10;100.00;96170.76;110229;1241;59705;-77
2023/04/26 02:18:25;;;;;;;5.10;3.10;;;;;;;6.11;100.00;96168.59;111494;1240;70635;-77
2023/04/26 02:20:56;;;;;;;4.30;2.80;;;;;;;6.07;100.00;96165.95;111904;1242;68319;-77
2023/04/26 02:23:27;;;;;;;4.00;2.60;;;;;;;6.07;100.00;96164.42;110156;1244;67733;-76
2023/04/26 02:25:58;;;;;;;4.30;3.00;;;;;;;6.08;100.00;96165.70;110149;1245;59694;-77
2023/04/26 02:28:31;;;;;;;3.80;3.20;;;;;;;6.07;100.00;96164.73;110187;1245;59739;-76
2023/04/26 02:31:03;;;;;;;3.70;2.60;;;;;;;6.05;100.00;96165.56;110181;1242;71504;-77
2023/04/26 02:33:33;;;;;;;4.00;2.90;;;;;;;6.00;100.00;96164.42;110219;1243;67572;-77
2023/04/26 02:36:05;;;;;;;4.10;2.50;;;;;;;5.99;100.00;96168.98;110102;1246;69299;-77
2023/04/26 02:38:36;;;;;;;3.60;2.80;;;;;;;5.96;100.00;96169.36;110090;1244;59706;-77
2023/04/26 02:41:06;;;;;;;4.80;3.40;;;;;;;5.91;100.00;96177.66;110167;1241;59766;-77
2023/04/26 02:43:37;;;;;;;3.80;2.70;;;;;;;5.93;100.00;96172.16;110200;1242;71746;-77
2023/04/26 02:46:09;;;;;;;3.50;2.80;;;;;;;5.89;100.00;96174.39;110097;1242;68487;-78
2023/04/26 02:48:40;;;;;;;4.00;3.10;;;;;;;5.85;100.00;96176.92;110224;1247;69263;-78
2023/04/26 02:51:11;;;;;;;4.60;3.40;;;;;;;5.86;100.00;96178.90;110124;1245;59663;-78
2023/04/26 02:53:41;;;;;;;4.30;3.50;;;;;;;5.85;100.00;96181.70;110160;1243;59729;-77
2023/04/26 02:56:13;;;;;;;4.00;3.00;;;;;;;5.83;100.00;96186.73;110229;1242;71214;-79
2023/04/26 02:58:46;;;;;;;3.50;3.00;;;;;;;5.77;100.00;96186.44;110230;1241;68763;-78
2023/04/26 03:01:17;;;;;;;4.40;3.40;;;;;;;5.78;100.00;96186.42;110124;1242;68390;-78
2023/04/26 03:03:48;;;;;;;5.10;3.40;;;;;;;5.72;100.00;96187.00;110169;1242;59744;-78
2023/04/26 03:06:18;;;;;;;5.00;3.30;;;;;;;5.65;100.00;96180.46;110193;1241;59705;-78
2023/04/26 03:08:48;;;;;;;4.20;3.30;;;;;;;5.66;100.00;96185.73;110210;1242;70601;-78
2023/04/26 03:11:18;;;;;;;4.00;3.10;;;;;;;5.66;100.00;96187.33;110154;1241;68700;-78
2023/04/26 03:13:48;;;;;;;5.00;3.20;;;;;;;5.64;100.00;96190.87;110150;1246;69332;-78
2023/04/26 03:16:22;;;;;;;3.70;2.50;;;;;;;5.63;100.00;96194.41;110174;1241;59764;-78
2023/04/26 03:18:52;;;;;;;3.70;2.60;;;;;;;5.60;100.00;96194.80;110145;1245;59806;-78
2023/04/26 03:21:23;;;;;;;3.80;2.80;;;;;;;5.58;100.00;96193.21;110164;1245;71223;-77
2023/04/26 03:23:54;;;;;;;3.80;2.80;;;;;;;5.54;100.00;96197.48;110144;1246;69231;-78
2023/04/26 03:26:25;;;;;;;5.20;3.10;;;;;;;5.55;100.00;96198.45;110247;1246;69124;-78
2023/04/26 03:28:55;;;;;;;4.10;2.20;;;;;;;5.55;100.00;96201.34;110131;1245;59718;-78
2023/04/26 03:31:26;;;;;;;3.40;2.30;;;;;;;5.57;100.00;96205.39;110183;1242;59712;-78
2023/04/26 03:33:57;;;;;;;3.90;2.60;;;;;;;5.50;100.00;96206.71;110249;1242;70466;-78
2023/04/26 03:36:29;;;;;;;;;;;;;;;5.47;100.00;96208.52;110211;1245;68431;-78
2023/04/26 03:38:59;;;;;;;3.60;2.60;;;;;;;5.42;100.00;96212.02;110185;1242;69871;-78
2023/04/26 03:41:29;;;;;;;3.20;2.60;;;;;;;5.45;100.00;96214.02;110113;1243;59681;-78
2023/04/26 03:44:02;;;;;;;3.10;2.60;;;;;;;5.44;100.00;96220.27;110112;1245;59654;-78
2023/04/26 03:46:31;;;;;;;3.90;3.20;;;;;;;5.43;100.00;96222.11;110147;1240;71920;-78
2023/04/26 03:49:00;;;;;;;;;;;;;;;5.44;100.00;96227.40;110114;1245;69216;-78
2023/04/26 03:51:30;;;;;;;3.60;2.90;;;;;;;5.42;100.00;96226.85;110228;1245;69757;-78
2023/04/26 03:53:59;;;;;;;4.40;3.00;;;;;;;5.42;100.00;96229.42;110176;1242;59742;-78
2023/04/26 03:56:29;;;;;;;3.70;2.90;;;;;;;5.44;100.00;96233.26;110259;1242;59753;-77
2023/04/26 03:58:58;;;;;;;2.70;2.10;;;;;;;5.45;100.00;96232.31;110218;1242;71381;-77
2023/04/26 04:01:29;;;;;;;3.40;2.50;;;;;;;5.47;100.00;96239.25;110157;1241;69416;-77
2023/04/26 04:03:58;;;;;;;3.20;2.70;;;;;;;5.44;100.00;96241.38;110121;1251;69233;-77
2023/04/26 04:06:29;;;;;;;3.10;2.60;;;;;;;5.45;100.00;96238.20;110129;1245;59786;-77
2023/04/26 04:08:59;;;;;;;3.80;3.10;;;;;;;5.45;100.00;96240.48;110264;1242;59659;-77
2023/04/26 04:11:28;;;;;;;5.20;3.50;;;;;;;5.38;100.00;96242.82;110239;1241;72346;-76
2023/04/26 04:13:58;;;;;;;5.00;3.60;;;;;;;5.39;100.00;96245.38;110241;1240;69639;-77
2023/04/26 04:16:28;;;;;;;3.50;2.70;;;;;;;5.42;100.00;96250.32;110155;1244;69756;-77
2023/04/26 04:18:57;;;;;;;4.80;3.60;;;;;;;5.42;100.00;96250.86;110148;1245;59670;-77
2023/04/26 04:21:27;;;;;;;4.60;3.30;;;;;;;5.43;100.00;96255.60;110169;1246;59685;-77
2023/04/26 04:23:57;;;;;;;4.90;3.10;;;;;;;5.44;100.00;96257.27;110149;1245;71420;-77
2023/04/26 04:26:29;;;;;;;3.20;2.80;;;;;;;5.44;100.00;96260.02;110116;1246;69136;-76
2023/04/26 04:29:07;;;;;;;4.00;3.10;;;;;;;5.44;100.00;96267.29;110576;1240;70300;-77
2023/04/26 04:31:38;;;;;;;4.50;3.20;;;;;;;5.42;100.00;96266.60;111712;1241;59779;-78
2023/04/26 04:34:10;;;;;;;4.40;3.30;;;;;;;5.40;100.00;96268.80;110665;1242;59624;-78
2023/04/26 04:36:42;;;;;;;3.80;3.40;;;;;;;5.45;100.00;96273.16;110295;1240;72592;-77
2023/04/26 04:39:15;;;;;;;4.50;3.80;;;;;;;5.41;100.00;96271.81;110129;1246;69265;-77
2023/04/26 04:41:48;;;;;;;4.80;4.00;;;;;;;5.42;100.00;96273.86;110197;1240;68719;-77
2023/04/26 04:44:20;;;;;;;4.80;4.10;;;;;;;5.47;100.00;96276.38;110194;1242;59722;-76
2023/04/26 04:46:52;;;;;;;5.10;3.80;;;;;;;5.51;100.00;96278.06;110181;1245;59691;-77
2023/04/26 04:49:23;;;;;;;4.50;3.80;;;;;;;5.35;100.00;96279.02;110219;1241;71289;-77
2023/04/26 04:51:53;;;;;;;4.60;4.00;;;;;;;5.42;100.00;96281.63;110129;1245;69347;-77
2023/04/26 04:54:23;;;;;;;4.90;4.30;;;;;;;5.36;100.00;96287.27;110176;1241;69243;-77
2023/04/26 04:56:53;;;;;;;4.70;4.10;;;;;;;5.39;100.00;96286.49;110133;1245;59741;-76
2023/04/26 04:59:23;;;;;;;4.40;3.40;;;;;;;5.39;100.00;96293.90;110130;1241;59731;-77
2023/04/26 05:01:53;;;;;;;5.10;4.50;;;;;;;5.41;100.00;96291.89;110114;1242;70609;-77
2023/04/26 05:04:22;;;;;;;5.90;4.60;;;;;;;5.44;100.00;96296.86;110108;1242;69265;-77
2023/04/26 05:06:52;;;;;;;5.80;4.90;;;;;;;5.42;100.00;96296.66;110156;1242;69609;-76
2023/04/26 05:09:23;;;;;;;5.10;4.50;;;;;;;5.44;100.00;96295.46;110212;1243;59745;-77
2023/04/26 05:11:53;;;;;;;6.20;4.80;;;;;;;5.46;100.00;96298.78;110121;1241;59707;-77
2023/04/26 05:14:21;;;;;;;6.70;4.60;;;;;;;5.50;100.00;96298.65;110148;1245;70448;-78
2023/04/26 05:16:51;;;;;;;5.60;4.70;;;;;;;5.50;100.00;96297.45;110103;1244;69682;-78
2023/04/26 05:19:20;;;;;;;5.70;4.50;;;;;;;5.55;100.00;96296.59;110273;1240;69306;-79
2023/04/26 05:21:51;;;;;;;5.70;4.30;;;;;;;5.60;100.00;96299.05;110271;1243;59746;-77
2023/04/26 05:24:21;;;;;;;6.00;4.90;;;;;;;5.58;100.00;96297.25;110249;1241;59731;-77
2023/04/26 05:26:49;;;;;;;6.10;4.70;;;;;;;5.56;100.00;96299.11;110122;1244;71163;-77
2023/04/26 05:29:39;;;;;;;5.30;4.30;;;;;;;5.51;100.00;96302.23;110242;1242;69687;-76
2023/04/26 05:32:25;;;;;;;6.40;4.70;;;;;;;5.58;100.00;96297.61;110182;1242;68789;-77
2023/04/26 05:35:17;;;;;;;4.80;4.30;;;;;;;5.55;100.00;96299.03;110188;1242;59710;-77
2023/04/26 05:37:45;;;;;;;5.30;4.40;;;;;;;5.53;100.00;96299.66;110215;1242;59678;-77
2023/04/26 05:40:16;;;;;;;4.60;4.10;;;;;;;5.64;100.00;96303.73;110163;1241;71391;-76
2023/04/26 05:42:45;;;;;;;5.90;4.80;;;;;;;5.69;100.00;96302.54;110180;1241;69486;-76
2023/04/26 05:45:15;;;;;;;4.80;4.30;;;;;;;5.73;100.00;96304.65;110117;1245;68513;-76
2023/04/26 05:47:46;;;;;;;4.90;4.30;;;;;;;5.78;100.00;96308.26;110249;1240;59685;-75
2023/04/26 05:50:15;;;;;;;4.70;4.00;;;;;;;5.72;100.00;96309.73;110318;1242;59627;-75
2023/04/26 05:52:44;;;;;;;4.70;3.90;;;;;;;5.75;100.00;96313.87;110116;1245;70957;-75
2023/04/26 05:55:14;;;;;;;5.30;3.90;;;;;;;5.78;100.00;96313.80;110093;1245;68480;-74
2023/04/26 05:57:44;;;;;;;5.50;4.20;;;;;;;5.84;100.00;96316.88;110097;1244;69296;-74
2023/04/26 06:00:14;;;;;;;6.20;4.20;;;;;;;5.84;100.00;96320.13;110096;1244;59726;-76
2023/04/26 06:02:44;;;;;;;9.10;4.30;;;;;;;5.85;100.00;96320.92;110078;1246;59671;-75
2023/04/26 06:05:16;;;;;;;5.40;4.10;;;;;;;5.83;100.00;96323.48;110248;1245;71668;-74
2023/04/26 06:07:46;;;;;;;4.60;3.70;;;;;;;5.90;100.00;96326.08;110121;1244;69049;-75
2023/04/26 06:10:15;;;;;;;4.30;3.40;;;;;;;5.90;100.00;96325.96;109858;1243;68263;-75
2023/04/26 06:12:45;;;;;;;4.30;3.40;;;;;;;5.92;100.00;96330.52;110124;1242;59825;-76
2023/04/26 06:15:14;;;;;;;5.00;3.50;;;;;;;5.85;100.00;96334.05;109886;1248;60149;-76
2023/04/26 06:17:45;;;;;;;4.20;3.30;;;;;;;5.98;100.00;96338.75;109914;1245;70963;-77
2023/04/26 06:20:15;;;;;;;4.20;2.60;;;;;;;5.95;100.00;96340.14;110096;1241;69656;-77
2023/04/26 06:22:44;;;;;;;3.50;3.20;;;;;;;5.98;100.00;96346.13;109869;1241;69913;-77
2023/04/26 06:25:14;;;;;;;3.70;2.70;;;;;;;6.00;100.00;96349.26;110190;1244;59748;-77
2023/04/26 06:27:43;;;;;;;2.90;2.50;;;;;;;6.10;100.00;96351.17;110222;1244;59650;-77
2023/04/26 06:30:12;;;;;;;4.10;2.80;;;;;;;6.06;100.00;96353.52;110141;1243;71266;-78
2023/04/26 06:32:44;;;;;;;3.10;2.40;;;;;;;6.09;100.00;96354.52;110174;1245;68761;-78
2023/04/26 06:35:15;;;;;;;2.90;2.40;;;;;;;6.13;100.00;96353.17;110109;1243;68723;-77
2023/04/26 06:37:45;;;;;;;;;;;;;;;6.15;100.00;96356.31;109255;1241;1271455;-76
2023/04/26 06:40:14;;;;;;;3.80;2.10;;;;;;;6.11;100.00;96361.27;110329;1244;59688;-78
2023/04/26 06:42:44;;;;;;;2.40;1.80;;;;;;;6.05;100.00;96363.44;111522;1241;70927;-77
2023/04/26 06:45:18;;;;;;;3.20;2.00;;;;;;;6.09;100.00;96370.11;110918;1242;68772;-77
2023/04/26 06:47:51;;;;;;;2.00;1.60;;;;;;;6.20;100.00;96372.77;110218;1242;70060;-77
2023/04/26 06:50:24;;;;;;;2.60;1.90;;;;;;;6.20;100.00;96373.50;110153;1244;59757;-77
2023/04/26 06:52:53;;;;;;;2.60;1.90;;;;;;;6.22;100.00;96371.92;110203;1244;59627;-77
2023/04/26 06:55:22;;;;;;;2.70;2.00;;;;;;;6.31;100.00;96375.06;110125;1241;71404;-76
2023/04/26 06:57:51;;;;;;;3.10;1.80;;;;;;;6.27;100.00;96374.35;110131;1241;69213;-74
2023/04/26 07:00:21;;;;;;;13.60;8.40;;;;;;;6.41;100.00;96378.36;110101;1243;70093;-74
2023/04/26 07:02:49;;;;;;;8.00;5.50;;;;;;;6.56;100.00;96381.58;110077;1245;59692;-74
2023/04/26 07:05:19;;;;;;;5.50;3.60;;;;;;;6.67;100.00;96383.70;110188;1241;59718;-75
2023/04/26 07:07:49;;;;;;;2.40;1.60;;;;;;;6.77;100.00;96386.83;110123;1244;71355;-75
2023/04/26 07:10:18;;;;;;;3.60;2.30;;;;;;;6.84;100.00;96392.70;109857;1241;69234;-76
2023/04/26 07:12:47;;;;;;;3.20;2.10;;;;;;;6.96;100.00;96393.20;110130;1245;69616;-75
2023/04/26 07:15:16;;;;;;;1.90;1.20;;;;;;;6.83;100.00;96401.76;110123;1241;59695;-76
2023/04/26 07:17:45;;;;;;;2.70;2.10;;;;;;;6.75;100.00;96399.73;110150;1245;59611;-76
2023/04/26 07:20:18;;;;;;;2.70;1.60;;;;;;;6.87;100.00;96406.15;110201;1243;71790;-76
2023/04/26 07:22:47;;;;;;;1.70;1.40;;;;;;;6.86;100.00;96405.88;110146;1241;69042;-76
2023/04/26 07:25:17;;;;;;;4.10;2.30;;;;;;;6.95;100.00;96413.16;110193;1243;69085;-76
2023/04/26 07:27:46;;;;;;;2.20;1.50;;;;;;;6.98;100.00;96413.52;110148;1245;59696;-75
2023/04/26 07:30:15;;;;;;;1.10;1.00;;;;;;;7.01;100.00;96422.45;110174;1243;59663;-75
2023/04/26 07:32:43;;;;;;;2.50;1.60;;;;;;;6.98;100.00;96423.36;110157;1244;71165;-76
2023/04/26 07:35:14;;;;;;;1.00;0.80;;;;;;;7.03;100.00;96428.31;109955;1246;69305;-75
2023/04/26 07:37:43;;;;;;;0.80;0.80;;;;;;;7.01;100.00;96430.27;110166;1244;69729;-75
2023/04/26 07:40:13;;;;;;;1.40;0.90;;;;;;;7.07;100.00;96433.61;110123;1245;59769;-76
2023/04/26 07:42:42;;;;;;;1.60;1.50;;;;;;;7.26;100.00;96437.74;110135;1245;59664;-75
2023/04/26 07:45:11;;;;;;;1.40;1.00;;;;;;;7.45;100.00;96443.77;110159;1244;70604;-75
2023/04/26 07:47:40;;;;;;;1.10;0.90;;;;;;;7.61;100.00;96449.27;110185;1242;69427;-75
2023/04/26 07:50:10;;;;;;;0.90;0.90;;;;;;;7.74;100.00;96449.03;110141;1245;70218;-75
2023/04/26 07:52:39;;;;;;;;;;;;;;;7.83;100.00;96455.39;110160;1241;59679;-75
2023/04/26 07:55:10;;;;;;;1.20;0.90;;;;;;;7.93;100.00;96463.11;110154;1241;59702;-75
2023/04/26 07:57:40;;;;;;;;;;;;;;;7.92;99.03;96464.40;110164;1245;71962;-74
2023/04/26 08:00:10;;;;;;;0.70;0.70;;;;;;;7.90;98.92;96468.55;110126;1244;68801;-75
2023/04/26 08:02:39;;;;;;;1.00;0.80;;;;;;;7.89;99.57;96475.91;110147;1243;69911;-75
2023/04/26 08:05:15;;;;;;;0.80;0.80;;;;;;;7.81;97.05;96476.92;110137;1241;59651;-75
2023/04/26 08:07:45;;;;;;;1.60;1.00;;;;;;;7.84;99.24;96482.20;110122;1241;59679;-75
2023/04/26 08:10:14;;;;;;;0.90;0.90;;;;;;;7.84;99.44;96487.81;110150;1245;69453;-75
2023/04/26 08:12:43;;;;;;;0.70;0.70;;;;;;;7.89;100.00;96490.16;110293;1243;69234;-75
2023/04/26 08:15:12;;;;;;;1.30;1.00;;;;;;;7.84;99.53;96488.83;110078;1245;69907;-75
2023/04/26 08:17:41;;;;;;;0.80;0.80;;;;;;;7.93;98.96;96496.14;110128;1243;59668;-76
2023/04/26 08:20:10;;;;;;;0.90;0.80;;;;;;;7.98;98.91;96493.45;110161;1244;59737;-76
2023/04/26 08:22:38;;;;;;;0.80;0.80;;;;;;;8.08;98.66;96495.30;110129;1241;71186;-77
2023/04/26 08:25:08;;;;;;;1.20;0.70;;;;;;;7.96;95.60;96493.77;109890;1245;69073;-76
2023/04/26 08:27:38;;;;;;;;;;;;;;;7.93;97.10;96495.27;110169;1245;69163;-76
2023/04/26 08:30:07;;;;;;;;;;;;;;;7.94;96.54;96499.66;110161;1242;59738;-76
2023/04/26 08:32:37;;;;;;;0.60;0.60;;;;;;;7.93;97.76;96499.21;110128;1240;59720;-76
2023/04/26 08:35:06;;;;;;;1.20;0.90;;;;;;;7.96;97.41;96502.63;110145;1243;71837;-76
2023/04/26 08:37:36;;;;;;;1.00;0.90;;;;;;;8.06;98.38;96503.96;110154;1243;69151;-77
2023/04/26 08:40:09;;;;;;;1.00;0.90;;;;;;;8.09;98.08;96506.83;110148;1241;68113;-76
2023/04/26 08:42:44;;;;;;;0.70;0.70;;;;;;;8.01;97.33;96506.77;110142;1245;59737;-76
2023/04/26 08:45:15;;;;;;;0.80;0.80;;;;;;;7.97;96.94;96509.52;110120;1245;59734;-77
2023/04/26 08:47:46;;;;;;;0.90;0.90;;;;;;;7.87;95.79;96511.46;110152;1248;70449;-76
2023/04/26 08:50:19;;;;;;;0.80;0.80;;;;;;;7.79;96.00;96515.41;110145;1241;68294;-76
2023/04/26 08:52:50;;;;;;;1.20;1.10;;;;;;;7.83;97.87;96518.70;109810;1246;69278;-77
2023/04/26 08:55:20;;;;;;;1.10;1.00;;;;;;;7.89;98.64;96519.11;110920;1241;59705;-77
2023/04/26 08:57:50;;;;;;;0.90;0.90;;;;;;;7.93;97.34;96520.25;111255;1241;59675;-77
2023/04/26 09:00:19;;;;;;;1.20;0.80;;;;;;;7.96;97.33;96522.46;110224;1244;71177;-77
2023/04/26 09:02:50;;;;;;;0.70;0.70;;;;;;;7.92;96.74;96519.26;110179;1244;69229;-76
2023/04/26 09:05:23;;;;;;;1.40;1.00;;;;;;;7.68;96.35;96523.11;110153;1241;68385;-77
2023/04/26 09:08:04;;;;;;;0.90;0.90;;;;;;;7.97;97.88;96528.61;109876;1241;59684;-75
2023/04/26 09:10:32;;;;;;;1.00;0.80;;;;;;;8.03;97.35;96531.61;110240;1241;59721;-76
2023/04/26 09:13:03;;;;;;;0.80;0.80;;;;;;;8.04;97.30;96531.33;110367;1241;71895;-75
2023/04/26 09:15:32;;;;;;;1.00;0.90;;;;;;;8.10;98.66;96537.98;110335;1242;69099;-79
2023/04/26 09:18:17;;;;;;;0.70;0.70;;;;;;;8.29;98.31;96537.44;110224;1242;69257;-78
2023/04/26 09:21:01;;;;;;;1.60;0.90;;;;;;;8.29;96.81;96540.00;110443;1242;59773;-77
2023/04/26 09:23:31;;;;;;;0.90;0.90;;;;;;;8.34;95.81;96542.96;110232;1242;59691;-79
2023/04/26 09:26:19;;;;;;;1.70;0.80;;;;;;;8.46;96.00;96546.02;110258;1240;71957;-78
2023/04/26 09:28:49;;;;;;;0.80;0.80;;;;;;;8.46;94.28;96548.27;110188;1243;69248;-78
2023/04/26 09:31:38;;;;;;;;;;;;;;;8.48;97.09;96550.05;110254;1241;69301;-77
2023/04/26 09:34:09;;;;;;;1.10;0.90;;;;;;;8.54;97.36;96553.95;110181;1241;59743;-77
2023/04/26 09:36:48;;;;;;;0.90;0.90;;;;;;;8.60;95.69;96555.51;110123;1241;59693;-76
2023/04/26 09:39:38;;;;;;;;;;;;;;;8.51;94.86;96558.80;110222;1241;71333;-75
2023/04/26 09:42:10;;;;;;;1.00;0.90;;;;;;;8.43;93.54;96555.83;110213;1240;68464;-76
2023/04/26 09:44:38;;;;;;;0.90;0.80;;;;;;;8.33;93.88;96560.05;110169;1241;69867;-75
2023/04/26 09:47:09;;;;;;;0.70;0.70;;;;;;;8.28;94.41;96560.21;109792;1245;59731;-76
2023/04/26 09:49:50;;;;;;;0.60;0.60;;;;;;;8.28;94.09;96562.17;109849;1245;59700;-76
2023/04/26 09:52:19;;;;;;;1.10;0.80;;;;;;;8.36;94.51;96564.52;109812;1241;71554;-76
2023/04/26 09:54:50;;;;;;;0.60;0.60;;;;;;;8.46;94.32;96568.09;109836;1245;68544;-75
2023/04/26 09:57:21;;;;;;;0.70;0.70;;;;;;;8.50;94.11;96569.19;110157;1244;69898;-76
2023/04/26 09:59:51;;;;;;;1.90;1.00;;;;;;;8.45;93.33;96577.23;110141;1241;59684;-75
2023/04/26 10:02:25;;;;;;;0.80;0.70;;;;;;;8.46;94.43;96573.96;110145;1241;60188;-76
2023/04/26 10:04:55;;;;;;;2.00;1.00;;;;;;;8.50;95.97;96577.02;110158;1243;71684;-76
2023/04/26 10:07:25;;;;;;;1.50;0.80;;;;;;;8.56;94.86;96574.75;110152;1244;69529;-76
2023/04/26 10:09:56;;;;;;;1.20;0.80;;;;;;;8.56;95.42;96577.02;110156;1244;69332;-76
2023/04/26 10:12:25;;;;;;;1.10;0.80;;;;;;;8.54;95.37;96580.98;110153;1241;59728;-76
2023/04/26 10:14:56;;;;;;;1.10;0.80;;;;;;;8.61;94.99;96580.98;110164;1241;59704;-76
2023/04/26 10:17:25;;;;;;;1.20;0.70;;;;;;;8.74;94.43;96582.26;110152;1243;70391;-76
2023/04/26 10:19:57;;;;;;;1.00;0.80;;;;;;;8.83;94.56;96581.50;110145;1245;69909;-76
2023/04/26 10:22:32;;;;;;;0.60;0.60;;;;;;;8.88;93.28;96584.61;110122;1244;69845;-76
2023/04/26 10:25:01;;;;;;;0.50;0.50;;;;;;;8.97;92.98;96587.20;110139;1241;59747;-76
2023/04/26 10:27:42;;;;;;;0.60;0.60;;;;;;;8.99;93.52;96587.92;110128;1245;59699;-76
2023/04/26 10:30:13;;;;;;;0.70;0.70;;;;;;;9.02;92.52;96589.38;110181;1243;72011;-76
2023/04/26 10:32:51;;;;;;;0.80;0.80;;;;;;;9.01;92.95;96592.27;110153;1243;69233;-76
2023/04/26 10:35:25;;;;;;;0.90;0.90;;;;;;;8.95;91.95;96593.27;110175;1243;69101;-76
2023/04/26 10:38:02;;;;;;;1.40;1.00;;;;;;;8.92;92.43;96593.64;110174;1241;59746;-76
2023/04/26 10:40:39;;;;;;;1.00;0.80;;;;;;;8.90;92.40;96595.36;110233;1242;59694;-75
2023/04/26 10:43:14;;;;;;;1.10;1.00;;;;;;;8.92;92.75;96599.02;110193;1241;70406;-75
2023/04/26 10:45:45;;;;;;;1.20;1.10;;;;;;;8.97;92.88;96598.09;110178;1245;69275;-77
2023/04/26 10:48:13;;;;;;;;;;;;;;;8.95;91.54;96596.72;110172;1241;68409;-77
2023/04/26 10:51:00;;;;;;;1.20;1.10;;;;;;;8.96;92.34;96599.56;110110;1244;59671;-75
2023/04/26 10:53:32;;;;;;;1.50;1.20;;;;;;;9.08;92.69;96601.61;110182;1243;59739;-75
2023/04/26 10:56:00;;;;;;;1.70;1.10;;;;;;;9.08;91.17;96605.39;110144;1245;71460;-76
2023/04/26 10:58:33;;;;;;;1.60;1.20;;;;;;;9.00;91.24;96610.52;110160;1244;69057;-76
2023/04/26 11:01:19;;;;;;;1.20;1.10;;;;;;;8.96;91.41;96607.58;110165;1241;68398;-75
2023/04/26 11:03:57;;;;;;;2.70;1.30;;;;;;;8.89;91.01;96610.36;110144;1241;59696;-75
2023/04/26 11:06:50;;;;;;;1.50;1.30;;;;;;;8.84;92.84;96614.61;110157;1245;59712;-76
2023/04/26 11:09:47;;;;;;;2.00;1.20;;;;;;;8.84;92.62;96619.51;110294;1245;70908;-75
2023/04/26 11:12:16;;;;;;;1.70;1.30;;;;;;;8.74;92.33;96620.63;110569;1243;68782;-75
2023/04/26 11:14:45;;;;;;;1.70;1.30;;;;;;;8.80;92.74;96620.35;110251;1244;69628;-76
2023/04/26 11:17:14;;;;;;;2.00;1.50;;;;;;;8.78;93.18;96621.17;110196;1242;59756;-75
2023/04/26 11:19:46;;;;;;;2.90;2.00;;;;;;;8.88;93.35;96625.45;110182;1242;59679;-76
2023/04/26 11:22:15;;;;;;;;;;;;;;;8.96;93.46;96622.86;110139;1241;70432;-76
2023/04/26 11:24:43;;;;;;;3.40;2.20;;;;;;;9.03;93.83;96626.00;110126;1241;69251;-76
2023/04/26 11:27:13;;;;;;;4.70;3.10;;;;;;;9.17;93.48;96625.40;110128;1242;69729;-76
2023/04/26 11:29:41;;;;;;;2.70;2.00;;;;;;;9.36;93.89;96629.98;110110;1241;59747;-75
2023/04/26 11:32:11;;;;;;;3.10;1.90;;;;;;;9.44;93.40;96628.58;110138;1243;59663;-75
2023/04/26 11:34:43;;;;;;;3.20;2.20;;;;;;;9.60;92.11;96632.38;110139;1241;70874;-75
2023/04/26 11:37:11;;;;;;;3.10;2.60;;;;;;;9.64;92.58;96631.70;110179;1245;69242;-75
2023/04/26 11:39:44;;;;;;;4.20;2.80;;;;;;;9.85;92.05;96628.73;110149;1243;69885;-75
2023/04/26 11:42:12;;;;;;;2.80;2.20;;;;;;;9.95;92.09;96628.08;110134;1243;59712;-75
2023/04/26 11:44:41;;;;;;;3.30;2.70;;;;;;;10.11;89.81;96627.15;110129;1242;59650;-76
2023/04/26 11:47:12;;;;;;;4.70;3.20;;;;;;;10.23;90.25;96628.76;110159;1242;72354;-76
2023/04/26 11:49:42;;;;;;;3.30;2.50;;;;;;;10.25;89.36;96632.94;110273;1244;69216;-76
2023/04/26 11:52:11;;;;;;;2.60;2.10;;;;;;;10.21;88.98;96632.54;110098;1243;68259;-75